sensor_id;sensor_type;location;lat;lon;timestamp;P1;durP1;ratioP1;P2;durP2;ratioP2
2001;SDS011;1003;48.002;7.788;2023-04-25T00:00:04;3.00;;;2.30;;
2001;SDS011;1003;48.002;7.788;2023-04-25T00:02:33;3.50;;;2.53;;
2001;SDS011;1003;48.002;7.788;2023-04-25T00:05:01;2.63;;;2.13;;
2001;SDS011;1003;48.002;7.788;2023-04-25T00:07:28;3.13;;;2.30;;
2001;SDS011;1003;48.002;7.788;2023-04-25T00:09:56;5.73;;;2.37;;
2001;SDS011;1003;48.002;7.788;2023-04-25T00:12:24;3.60;;;2.40;;
2001;SDS011;1003;48.002;7.788;2023-04-25T00:14:53;3.83;;;2.30;;
2001;SDS011;1003;48.002;7.788;2023-04-25T00:17:21;2.70;;;2.40;;
2001;SDS011;1003;48.002;7.788;2023-04-25T00:19:49;5.27;;;2.77;;
2001;SDS011;1003;48.002;7.788;2023-04-25T00:22:16;4.00;;;2.43;;
2001;SDS011;1003;48.002;7.788;2023-04-25T00:24:43;4.03;;;2.33;;
2001;SDS011;1003;48.002;7.788;2023-04-25T00:27:10;3.70;;;2.33;;
2001;SDS011;1003;48.002;7.788;2023-04-25T00:29:39;4.07;;;2.57;;
2001;SDS011;1003;48.002;7.788;2023-04-25T00:32:06;3.43;;;2.43;;
2001;SDS011;1003;48.002;7.788;2023-04-25T00:34:33;5.73;;;2.50;;
2001;SDS011;1003;48.002;7.788;2023-04-25T00:37:00;3.73;;;2.83;;
2001;SDS011;1003;48.002;7.788;2023-04-25T00:39:27;7.30;;;2.70;;
2001;SDS011;1003;48.002;7.788;2023-04-25T00:41:54;5.37;;;2.70;;
2001;SDS011;1003;48.002;7.788;2023-04-25T00:44:21;5.20;;;2.70;;
2001;SDS011;1003;48.002;7.788;2023-04-25T00:46:53;3.53;;;2.50;;
2001;SDS011;1003;48.002;7.788;2023-04-25T00:49:20;3.53;;;2.70;;
2001;SDS011;1003;48.002;7.788;2023-04-25T00:51:47;3.60;;;2.80;;
2001;SDS011;1003;48.002;7.788;2023-04-25T00:54:15;4.10;;;2.70;;
2001;SDS011;1003;48.002;7.788;2023-04-25T00:56:42;2.60;;;2.40;;
2001;SDS011;1003;48.002;7.788;2023-04-25T00:59:10;4.50;;;2.73;;
2001;SDS011;1003;48.002;7.788;2023-04-25T01:01:38;6.53;;;2.93;;
2001;SDS011;1003;48.002;7.788;2023-04-25T01:04:08;6.43;;;2.73;;
2001;SDS011;1003;48.002;7.788;2023-04-25T01:06:35;3.97;;;2.90;;
2001;SDS011;1003;48.002;7.788;2023-04-25T01:09:02;4.60;;;3.07;;
2001;SDS011;1003;48.002;7.788;2023-04-25T01:11:30;3.83;;;2.90;;
2001;SDS011;1003;48.002;7.788;2023-04-25T01:13:57;3.73;;;3.17;;
2001;SDS011;1003;48.002;7.788;2023-04-25T01:16:25;5.07;;;2.80;;
2001;SDS011;1003;48.002;7.788;2023-04-25T01:18:53;7.20;;;3.40;;
2001;SDS011;1003;48.002;7.788;2023-04-25T01:21:22;4.10;;;3.00;;
2001;SDS011;1003;48.002;7.788;2023-04-25T01:23:52;6.13;;;3.07;;
2001;SDS011;1003;48.002;7.788;2023-04-25T01:26:20;4.97;;;2.97;;
2001;SDS011;1003;48.002;7.788;2023-04-25T01:28:49;5.27;;;3.10;;
2001;SDS011;1003;48.002;7.788;2023-04-25T01:31:16;5.13;;;3.20;;
2001;SDS011;1003;48.002;7.788;2023-04-25T01:33:44;6.60;;;3.60;;
2001;SDS011;1003;48.002;7.788;2023-04-25T01:36:13;5.00;;;2.97;;
2001;SDS011;1003;48.002;7.788;2023-04-25T01:38:42;5.27;;;3.20;;
2001;SDS011;1003;48.002;7.788;2023-04-25T01:41:12;4.67;;;3.17;;
2001;SDS011;1003;48.002;7.788;2023-04-25T01:43:40;3.77;;;2.93;;
2001;SDS011;1003;48.002;7.788;2023-04-25T01:46:07;5.40;;;3.13;;
2001;SDS011;1003;48.002;7.788;2023-04-25T01:48:34;4.43;;;2.90;;
2001;SDS011;1003;48.002;7.788;2023-04-25T01:51:01;4.80;;;3.10;;
2001;SDS011;1003;48.002;7.788;2023-04-25T01:53:29;5.20;;;3.10;;
2001;SDS011;1003;48.002;7.788;2023-04-25T01:55:57;5.23;;;3.07;;
2001;SDS011;1003;48.002;7.788;2023-04-25T01:58:24;5.20;;;3.00;;
2001;SDS011;1003;48.002;7.788;2023-04-25T02:00:51;4.73;;;3.30;;
2001;SDS011;1003;48.002;7.788;2023-04-25T02:03:18;4.17;;;3.43;;
2001;SDS011;1003;48.002;7.788;2023-04-25T02:05:45;5.17;;;3.27;;
2001;SDS011;1003;48.002;7.788;2023-04-25T02:08:13;6.93;;;3.23;;
2001;SDS011;1003;48.002;7.788;2023-04-25T02:10:40;5.30;;;3.30;;
2001;SDS011;1003;48.002;7.788;2023-04-25T02:13:08;5.37;;;2.87;;
2001;SDS011;1003;48.002;7.788;2023-04-25T02:15:35;5.20;;;3.10;;
2001;SDS011;1003;48.002;7.788;2023-04-25T02:18:03;4.23;;;3.20;;
2001;SDS011;1003;48.002;7.788;2023-04-25T02:20:31;7.17;;;3.40;;
2001;SDS011;1003;48.002;7.788;2023-04-25T02:22:58;5.27;;;3.43;;
2001;SDS011;1003;48.002;7.788;2023-04-25T02:25:25;6.17;;;3.20;;
2001;SDS011;1003;48.002;7.788;2023-04-25T02:27:53;6.20;;;2.90;;
2001;SDS011;1003;48.002;7.788;2023-04-25T02:30:21;5.17;;;2.80;;
2001;SDS011;1003;48.002;7.788;2023-04-25T02:32:48;6.47;;;3.10;;
2001;SDS011;1003;48.002;7.788;2023-04-25T02:35:15;5.87;;;3.13;;
2001;SDS011;1003;48.002;7.788;2023-04-25T02:37:42;4.00;;;2.90;;
2001;SDS011;1003;48.002;7.788;2023-04-25T02:40:10;6.13;;;3.53;;
2001;SDS011;1003;48.002;7.788;2023-04-25T02:42:37;5.60;;;3.27;;
2001;SDS011;1003;48.002;7.788;2023-04-25T02:45:04;3.60;;;3.03;;
2001;SDS011;1003;48.002;7.788;2023-04-25T02:47:34;6.80;;;3.17;;
2001;SDS011;1003;48.002;7.788;2023-04-25T02:50:01;6.27;;;3.37;;
2001;SDS011;1003;48.002;7.788;2023-04-25T02:52:29;4.70;;;2.90;;
2001;SDS011;1003;48.002;7.788;2023-04-25T02:54:56;3.37;;;2.80;;
2001;SDS011;1003;48.002;7.788;2023-04-25T02:57:23;4.43;;;2.90;;
2001;SDS011;1003;48.002;7.788;2023-04-25T02:59:50;5.07;;;2.80;;
2001;SDS011;1003;48.002;7.788;2023-04-25T03:02:17;5.23;;;2.93;;
2001;SDS011;1003;48.002;7.788;2023-04-25T03:04:45;4.33;;;2.97;;
2001;SDS011;1003;48.002;7.788;2023-04-25T03:07:13;6.40;;;2.80;;
2001;SDS011;1003;48.002;7.788;2023-04-25T03:09:40;5.17;;;3.10;;
2001;SDS011;1003;48.002;7.788;2023-04-25T03:12:07;4.63;;;3.10;;
2001;SDS011;1003;48.002;7.788;2023-04-25T03:14:34;4.90;;;2.77;;
2001;SDS011;1003;48.002;7.788;2023-04-25T03:17:01;3.93;;;2.90;;
2001;SDS011;1003;48.002;7.788;2023-04-25T03:19:28;5.17;;;3.03;;
2001;SDS011;1003;48.002;7.788;2023-04-25T03:21:56;6.77;;;3.20;;
2001;SDS011;1003;48.002;7.788;2023-04-25T03:24:23;8.13;;;2.80;;
2001;SDS011;1003;48.002;7.788;2023-04-25T03:26:52;5.83;;;2.87;;
2001;SDS011;1003;48.002;7.788;2023-04-25T03:29:19;4.07;;;2.70;;
2001;SDS011;1003;48.002;7.788;2023-04-25T03:31:49;5.10;;;2.80;;
2001;SDS011;1003;48.002;7.788;2023-04-25T03:34:16;7.13;;;2.87;;
2001;SDS011;1003;48.002;7.788;2023-04-25T03:36:43;4.13;;;2.80;;
2001;SDS011;1003;48.002;7.788;2023-04-25T03:39:12;4.57;;;2.73;;
2001;SDS011;1003;48.002;7.788;2023-04-25T03:41:39;8.57;;;3.07;;
2001;SDS011;1003;48.002;7.788;2023-04-25T03:44:06;6.40;;;2.57;;
2001;SDS011;1003;48.002;7.788;2023-04-25T03:46:33;4.47;;;2.60;;
2001;SDS011;1003;48.002;7.788;2023-04-25T03:49:00;7.33;;;3.43;;
2001;SDS011;1003;48.002;7.788;2023-04-25T03:51:27;6.87;;;2.73;;
2001;SDS011;1003;48.002;7.788;2023-04-25T03:53:55;5.43;;;2.70;;
2001;SDS011;1003;48.002;7.788;2023-04-25T03:56:24;3.67;;;2.60;;
2001;SDS011;1003;48.002;7.788;2023-04-25T03:58:51;3.47;;;2.43;;
2001;SDS011;1003;48.002;7.788;2023-04-25T04:01:18;5.47;;;2.80;;
2001;SDS011;1003;48.002;7.788;2023-04-25T04:03:45;4.03;;;2.43;;
2001;SDS011;1003;48.002;7.788;2023-04-25T04:06:12;6.43;;;3.20;;
2001;SDS011;1003;48.002;7.788;2023-04-25T04:08:40;5.13;;;3.07;;
2001;SDS011;1003;48.002;7.788;2023-04-25T04:11:07;3.93;;;2.67;;
2001;SDS011;1003;48.002;7.788;2023-04-25T04:13:35;5.00;;;2.60;;
2001;SDS011;1003;48.002;7.788;2023-04-25T04:16:02;3.80;;;2.53;;
2001;SDS011;1003;48.002;7.788;2023-04-25T04:18:30;4.10;;;2.60;;
2001;SDS011;1003;48.002;7.788;2023-04-25T04:20:58;5.03;;;2.90;;
2001;SDS011;1003;48.002;7.788;2023-04-25T04:23:25;4.70;;;2.77;;
2001;SDS011;1003;48.002;7.788;2023-04-25T04:25:53;5.73;;;3.23;;
2001;SDS011;1003;48.002;7.788;2023-04-25T04:28:21;6.10;;;3.23;;
2001;SDS011;1003;48.002;7.788;2023-04-25T04:30:49;3.83;;;2.67;;
2001;SDS011;1003;48.002;7.788;2023-04-25T04:33:17;4.97;;;2.90;;
2001;SDS011;1003;48.002;7.788;2023-04-25T04:35:45;5.80;;;3.27;;
2001;SDS011;1003;48.002;7.788;2023-04-25T04:38:13;3.27;;;2.53;;
2001;SDS011;1003;48.002;7.788;2023-04-25T04:40:41;4.43;;;2.77;;
2001;SDS011;1003;48.002;7.788;2023-04-25T04:43:08;5.67;;;2.80;;
2001;SDS011;1003;48.002;7.788;2023-04-25T04:45:36;4.30;;;2.70;;
2001;SDS011;1003;48.002;7.788;2023-04-25T04:48:05;4.70;;;2.70;;
2001;SDS011;1003;48.002;7.788;2023-04-25T04:50:32;4.43;;;3.00;;
2001;SDS011;1003;48.002;7.788;2023-04-25T04:53:01;4.77;;;2.90;;
2001;SDS011;1003;48.002;7.788;2023-04-25T04:55:28;7.40;;;3.10;;
2001;SDS011;1003;48.002;7.788;2023-04-25T04:57:55;4.93;;;2.73;;
2001;SDS011;1003;48.002;7.788;2023-04-25T05:00:22;8.10;;;3.03;;
2001;SDS011;1003;48.002;7.788;2023-04-25T05:02:49;4.50;;;2.80;;
2001;SDS011;1003;48.002;7.788;2023-04-25T05:05:18;7.13;;;3.10;;
2001;SDS011;1003;48.002;7.788;2023-04-25T05:07:45;5.60;;;3.20;;
2001;SDS011;1003;48.002;7.788;2023-04-25T05:10:12;5.73;;;3.10;;
2001;SDS011;1003;48.002;7.788;2023-04-25T05:12:39;6.47;;;3.63;;
2001;SDS011;1003;48.002;7.788;2023-04-25T05:15:06;6.80;;;3.10;;
2001;SDS011;1003;48.002;7.788;2023-04-25T05:17:34;6.97;;;3.23;;
2001;SDS011;1003;48.002;7.788;2023-04-25T05:20:01;4.83;;;3.30;;
2001;SDS011;1003;48.002;7.788;2023-04-25T05:22:32;7.23;;;3.43;;
2001;SDS011;1003;48.002;7.788;2023-04-25T05:24:59;6.70;;;3.30;;
2001;SDS011;1003;48.002;7.788;2023-04-25T05:27:26;6.70;;;3.70;;
2001;SDS011;1003;48.002;7.788;2023-04-25T05:29:53;5.57;;;3.70;;
2001;SDS011;1003;48.002;7.788;2023-04-25T05:32:20;7.27;;;3.37;;
2001;SDS011;1003;48.002;7.788;2023-04-25T05:34:47;5.60;;;3.10;;
2001;SDS011;1003;48.002;7.788;2023-04-25T05:37:14;4.07;;;3.20;;
2001;SDS011;1003;48.002;7.788;2023-04-25T05:39:42;4.47;;;3.23;;
2001;SDS011;1003;48.002;7.788;2023-04-25T05:42:09;3.87;;;2.33;;
2001;SDS011;1003;48.002;7.788;2023-04-25T05:44:36;3.83;;;2.47;;
2001;SDS011;1003;48.002;7.788;2023-04-25T05:47:03;3.03;;;2.33;;
2001;SDS011;1003;48.002;7.788;2023-04-25T05:49:30;2.57;;;1.83;;
2001;SDS011;1003;48.002;7.788;2023-04-25T05:51:57;2.27;;;1.63;;
2001;SDS011;1003;48.002;7.788;2023-04-25T05:54:24;3.43;;;1.47;;
2001;SDS011;1003;48.002;7.788;2023-04-25T05:56:53;3.03;;;1.60;;
2001;SDS011;1003;48.002;7.788;2023-04-25T05:59:20;1.50;;;1.40;;
2001;SDS011;1003;48.002;7.788;2023-04-25T06:01:47;2.37;;;1.37;;
2001;SDS011;1003;48.002;7.788;2023-04-25T06:04:14;2.03;;;1.50;;
2001;SDS011;1003;48.002;7.788;2023-04-25T06:06:41;2.27;;;1.40;;
2001;SDS011;1003;48.002;7.788;2023-04-25T06:09:08;1.80;;;1.13;;
2001;SDS011;1003;48.002;7.788;2023-04-25T06:11:35;1.60;;;1.50;;
2001;SDS011;1003;48.002;7.788;2023-04-25T06:14:03;2.40;;;2.13;;
2001;SDS011;1003;48.002;7.788;2023-04-25T06:16:30;1.53;;;1.43;;
2001;SDS011;1003;48.002;7.788;2023-04-25T06:18:57;2.37;;;2.17;;
2001;SDS011;1003;48.002;7.788;2023-04-25T06:21:24;2.37;;;2.17;;
2001;SDS011;1003;48.002;7.788;2023-04-25T06:23:52;2.00;;;1.53;;
2001;SDS011;1003;48.002;7.788;2023-04-25T06:26:19;2.07;;;1.27;;
2001;SDS011;1003;48.002;7.788;2023-04-25T06:28:46;4.20;;;2.80;;
2001;SDS011;1003;48.002;7.788;2023-04-25T06:31:14;2.60;;;2.10;;
2001;SDS011;1003;48.002;7.788;2023-04-25T06:33:41;1.30;;;1.20;;
2001;SDS011;1003;48.002;7.788;2023-04-25T06:36:08;5.43;;;3.90;;
2001;SDS011;1003;48.002;7.788;2023-04-25T06:38:35;2.50;;;2.30;;
2001;SDS011;1003;48.002;7.788;2023-04-25T06:41:02;5.13;;;4.43;;
2001;SDS011;1003;48.002;7.788;2023-04-25T06:43:30;2.00;;;1.90;;
2001;SDS011;1003;48.002;7.788;2023-04-25T06:45:58;2.20;;;1.47;;
2001;SDS011;1003;48.002;7.788;2023-04-25T06:48:27;1.97;;;1.73;;
2001;SDS011;1003;48.002;7.788;2023-04-25T06:50:54;1.73;;;1.60;;
2001;SDS011;1003;48.002;7.788;2023-04-25T06:53:21;1.60;;;1.50;;
2001;SDS011;1003;48.002;7.788;2023-04-25T06:55:48;1.43;;;1.33;;
2001;SDS011;1003;48.002;7.788;2023-04-25T06:58:15;2.17;;;1.50;;
2001;SDS011;1003;48.002;7.788;2023-04-25T07:00:43;1.60;;;1.47;;
2001;SDS011;1003;48.002;7.788;2023-04-25T07:03:10;3.53;;;1.70;;
2001;SDS011;1003;48.002;7.788;2023-04-25T07:05:38;2.27;;;1.53;;
2001;SDS011;1003;48.002;7.788;2023-04-25T07:08:05;2.00;;;1.90;;
2001;SDS011;1003;48.002;7.788;2023-04-25T07:10:32;3.57;;;1.93;;
2001;SDS011;1003;48.002;7.788;2023-04-25T07:13:00;2.90;;;2.20;;
2001;SDS011;1003;48.002;7.788;2023-04-25T07:15:27;2.57;;;2.00;;
2001;SDS011;1003;48.002;7.788;2023-04-25T07:17:54;2.17;;;1.90;;
2001;SDS011;1003;48.002;7.788;2023-04-25T07:20:21;2.80;;;1.90;;
2001;SDS011;1003;48.002;7.788;2023-04-25T07:22:49;2.73;;;2.00;;
2001;SDS011;1003;48.002;7.788;2023-04-25T07:25:16;2.93;;;2.00;;
2001;SDS011;1003;48.002;7.788;2023-04-25T07:27:44;3.80;;;2.10;;
2001;SDS011;1003;48.002;7.788;2023-04-25T07:30:11;3.47;;;1.90;;
2001;SDS011;1003;48.002;7.788;2023-04-25T07:32:38;2.33;;;2.13;;
2001;SDS011;1003;48.002;7.788;2023-04-25T07:35:06;3.93;;;2.13;;
2001;SDS011;1003;48.002;7.788;2023-04-25T07:37:34;2.47;;;2.00;;
2001;SDS011;1003;48.002;7.788;2023-04-25T07:40:02;5.10;;;2.30;;
2001;SDS011;1003;48.002;7.788;2023-04-25T07:42:32;4.33;;;2.50;;
2001;SDS011;1003;48.002;7.788;2023-04-25T07:44:59;3.40;;;2.40;;
2001;SDS011;1003;48.002;7.788;2023-04-25T07:47:27;4.00;;;2.53;;
2001;SDS011;1003;48.002;7.788;2023-04-25T07:49:54;3.50;;;2.10;;
2001;SDS011;1003;48.002;7.788;2023-04-25T07:52:23;3.43;;;2.30;;
2001;SDS011;1003;48.002;7.788;2023-04-25T07:54:50;2.80;;;2.30;;
2001;SDS011;1003;48.002;7.788;2023-04-25T07:57:18;2.77;;;2.53;;
2001;SDS011;1003;48.002;7.788;2023-04-25T07:59:45;3.20;;;2.27;;
2001;SDS011;1003;48.002;7.788;2023-04-25T08:02:12;3.60;;;2.20;;
2001;SDS011;1003;48.002;7.788;2023-04-25T08:04:39;2.50;;;2.30;;
2001;SDS011;1003;48.002;7.788;2023-04-25T08:07:06;2.30;;;2.00;;
2001;SDS011;1003;48.002;7.788;2023-04-25T08:09:34;3.20;;;2.10;;
2001;SDS011;1003;48.002;7.788;2023-04-25T08:12:01;3.47;;;2.23;;
2001;SDS011;1003;48.002;7.788;2023-04-25T08:14:30;2.83;;;2.33;;
2001;SDS011;1003;48.002;7.788;2023-04-25T08:17:00;3.43;;;2.00;;
2001;SDS011;1003;48.002;7.788;2023-04-25T08:19:28;5.13;;;2.13;;
2001;SDS011;1003;48.002;7.788;2023-04-25T08:21:56;3.70;;;2.20;;
2001;SDS011;1003;48.002;7.788;2023-04-25T08:24:23;3.83;;;2.50;;
2001;SDS011;1003;48.002;7.788;2023-04-25T08:26:50;3.17;;;2.20;;
2001;SDS011;1003;48.002;7.788;2023-04-25T08:29:17;3.40;;;2.00;;
2001;SDS011;1003;48.002;7.788;2023-04-25T08:31:46;3.07;;;2.40;;
2001;SDS011;1003;48.002;7.788;2023-04-25T08:34:14;3.50;;;2.47;;
2001;SDS011;1003;48.002;7.788;2023-04-25T08:36:41;3.00;;;2.40;;
2001;SDS011;1003;48.002;7.788;2023-04-25T08:39:08;2.83;;;2.50;;
2001;SDS011;1003;48.002;7.788;2023-04-25T08:41:36;3.27;;;2.73;;
2001;SDS011;1003;48.002;7.788;2023-04-25T08:44:03;2.80;;;2.20;;
2001;SDS011;1003;48.002;7.788;2023-04-25T08:46:34;3.93;;;2.77;;
2001;SDS011;1003;48.002;7.788;2023-04-25T08:49:05;3.03;;;2.13;;
2001;SDS011;1003;48.002;7.788;2023-04-25T08:51:35;2.30;;;2.10;;
2001;SDS011;1003;48.002;7.788;2023-04-25T08:54:10;3.97;;;2.40;;
2001;SDS011;1003;48.002;7.788;2023-04-25T08:56:43;3.83;;;2.67;;
2001;SDS011;1003;48.002;7.788;2023-04-25T08:59:13;4.10;;;2.60;;
2001;SDS011;1003;48.002;7.788;2023-04-25T09:01:40;4.47;;;2.57;;
2001;SDS011;1003;48.002;7.788;2023-04-25T09:04:08;2.60;;;2.27;;
2001;SDS011;1003;48.002;7.788;2023-04-25T09:06:37;3.17;;;2.40;;
2001;SDS011;1003;48.002;7.788;2023-04-25T09:09:05;3.63;;;2.40;;
2001;SDS011;1003;48.002;7.788;2023-04-25T09:11:34;2.37;;;2.10;;
2001;SDS011;1003;48.002;7.788;2023-04-25T09:14:12;2.90;;;2.30;;
2001;SDS011;1003;48.002;7.788;2023-04-25T09:19:29;3.07;;;2.20;;
2001;SDS011;1003;48.002;7.788;2023-04-25T09:22:00;3.17;;;2.37;;
2001;SDS011;1003;48.002;7.788;2023-04-25T09:24:33;3.20;;;2.37;;
2001;SDS011;1003;48.002;7.788;2023-04-25T09:27:03;3.13;;;2.00;;
2001;SDS011;1003;48.002;7.788;2023-04-25T09:29:31;3.37;;;2.30;;
2001;SDS011;1003;48.002;7.788;2023-04-25T09:32:10;2.20;;;2.00;;
2001;SDS011;1003;48.002;7.788;2023-04-25T09:34:43;2.67;;;1.87;;
2001;SDS011;1003;48.002;7.788;2023-04-25T09:37:17;1.90;;;1.70;;
2001;SDS011;1003;48.002;7.788;2023-04-25T09:39:46;1.97;;;1.60;;
2001;SDS011;1003;48.002;7.788;2023-04-25T09:42:15;2.10;;;1.40;;
2001;SDS011;1003;48.002;7.788;2023-04-25T09:44:43;1.80;;;1.70;;
2001;SDS011;1003;48.002;7.788;2023-04-25T09:47:12;2.57;;;1.70;;
2001;SDS011;1003;48.002;7.788;2023-04-25T09:49:44;1.60;;;1.47;;
2001;SDS011;1003;48.002;7.788;2023-04-25T09:52:13;2.67;;;1.57;;
2001;SDS011;1003;48.002;7.788;2023-04-25T09:54:42;1.60;;;1.50;;
2001;SDS011;1003;48.002;7.788;2023-04-25T09:57:11;1.60;;;1.50;;
2001;SDS011;1003;48.002;7.788;2023-04-25T09:59:44;1.87;;;1.60;;
2001;SDS011;1003;48.002;7.788;2023-04-25T10:02:13;2.70;;;1.50;;
2001;SDS011;1003;48.002;7.788;2023-04-25T10:04:47;1.50;;;1.40;;
2001;SDS011;1003;48.002;7.788;2023-04-25T10:07:17;1.63;;;1.40;;
2001;SDS011;1003;48.002;7.788;2023-04-25T10:09:47;1.77;;;1.63;;
2001;SDS011;1003;48.002;7.788;2023-04-25T10:12:16;1.70;;;1.33;;
2001;SDS011;1003;48.002;7.788;2023-04-25T10:14:43;3.33;;;1.80;;
2001;SDS011;1003;48.002;7.788;2023-04-25T10:17:12;2.97;;;1.60;;
2001;SDS011;1003;48.002;7.788;2023-04-25T10:19:40;1.70;;;1.60;;
2001;SDS011;1003;48.002;7.788;2023-04-25T10:22:11;1.87;;;1.33;;
2001;SDS011;1003;48.002;7.788;2023-04-25T10:24:46;1.60;;;1.50;;
2001;SDS011;1003;48.002;7.788;2023-04-25T10:27:14;1.27;;;1.20;;
2001;SDS011;1003;48.002;7.788;2023-04-25T10:29:42;1.63;;;1.53;;
2001;SDS011;1003;48.002;7.788;2023-04-25T10:32:09;1.57;;;1.47;;
2001;SDS011;1003;48.002;7.788;2023-04-25T10:34:40;2.90;;;1.60;;
2001;SDS011;1003;48.002;7.788;2023-04-25T10:37:13;1.80;;;1.40;;
2001;SDS011;1003;48.002;7.788;2023-04-25T10:39:40;1.20;;;1.10;;
2001;SDS011;1003;48.002;7.788;2023-04-25T10:42:08;2.27;;;1.97;;
2001;SDS011;1003;48.002;7.788;2023-04-25T10:44:36;3.10;;;2.10;;
2001;SDS011;1003;48.002;7.788;2023-04-25T10:47:06;4.17;;;2.60;;
2001;SDS011;1003;48.002;7.788;2023-04-25T10:49:35;4.27;;;3.30;;
2001;SDS011;1003;48.002;7.788;2023-04-25T10:52:25;2.13;;;1.93;;
2001;SDS011;1003;48.002;7.788;2023-04-25T10:54:55;2.57;;;2.20;;
2001;SDS011;1003;48.002;7.788;2023-04-25T10:57:30;3.20;;;2.80;;
2001;SDS011;1003;48.002;7.788;2023-04-25T11:00:06;2.50;;;2.10;;
2001;SDS011;1003;48.002;7.788;2023-04-25T11:02:41;2.10;;;1.90;;
2001;SDS011;1003;48.002;7.788;2023-04-25T11:05:15;2.50;;;2.30;;
2001;SDS011;1003;48.002;7.788;2023-04-25T11:07:56;2.77;;;1.80;;
2001;SDS011;1003;48.002;7.788;2023-04-25T11:10:25;2.33;;;1.90;;
2001;SDS011;1003;48.002;7.788;2023-04-25T11:12:53;3.23;;;2.23;;
2001;SDS011;1003;48.002;7.788;2023-04-25T11:15:20;2.20;;;1.97;;
2001;SDS011;1003;48.002;7.788;2023-04-25T11:17:47;3.17;;;2.10;;
2001;SDS011;1003;48.002;7.788;2023-04-25T11:20:15;3.00;;;2.30;;
2001;SDS011;1003;48.002;7.788;2023-04-25T11:22:45;2.10;;;1.80;;
2001;SDS011;1003;48.002;7.788;2023-04-25T11:25:15;2.63;;;2.17;;
2001;SDS011;1003;48.002;7.788;2023-04-25T11:27:49;2.37;;;2.17;;
2001;SDS011;1003;48.002;7.788;2023-04-25T11:30:17;2.30;;;2.10;;
2001;SDS011;1003;48.002;7.788;2023-04-25T11:32:46;2.00;;;1.90;;
2001;SDS011;1003;48.002;7.788;2023-04-25T11:35:14;2.80;;;2.23;;
2001;SDS011;1003;48.002;7.788;2023-04-25T11:37:41;2.63;;;2.10;;
2001;SDS011;1003;48.002;7.788;2023-04-25T11:40:10;2.10;;;1.90;;
2001;SDS011;1003;48.002;7.788;2023-04-25T11:42:42;3.17;;;2.30;;
2001;SDS011;1003;48.002;7.788;2023-04-25T11:45:11;4.23;;;2.10;;
2001;SDS011;1003;48.002;7.788;2023-04-25T11:47:40;2.20;;;2.00;;
2001;SDS011;1003;48.002;7.788;2023-04-25T11:50:08;3.20;;;1.93;;
2001;SDS011;1003;48.002;7.788;2023-04-25T11:52:37;2.60;;;1.90;;
2001;SDS011;1003;48.002;7.788;2023-04-25T11:55:06;2.83;;;2.17;;
2001;SDS011;1003;48.002;7.788;2023-04-25T11:57:36;2.60;;;1.80;;
2001;SDS011;1003;48.002;7.788;2023-04-25T12:00:08;3.03;;;2.17;;
2001;SDS011;1003;48.002;7.788;2023-04-25T12:02:41;1.73;;;1.60;;
2001;SDS011;1003;48.002;7.788;2023-04-25T12:05:10;1.93;;;1.60;;
2001;SDS011;1003;48.002;7.788;2023-04-25T12:07:40;1.13;;;1.13;;
2001;SDS011;1003;48.002;7.788;2023-04-25T12:10:08;1.80;;;1.37;;
2001;SDS011;1003;48.002;7.788;2023-04-25T12:12:41;1.63;;;1.50;;
2001;SDS011;1003;48.002;7.788;2023-04-25T12:15:11;2.67;;;1.60;;
2001;SDS011;1003;48.002;7.788;2023-04-25T12:17:42;1.83;;;1.40;;
2001;SDS011;1003;48.002;7.788;2023-04-25T12:20:12;1.33;;;1.23;;
2001;SDS011;1003;48.002;7.788;2023-04-25T12:22:41;1.10;;;1.10;;
2001;SDS011;1003;48.002;7.788;2023-04-25T12:25:11;1.67;;;1.10;;
2001;SDS011;1003;48.002;7.788;2023-04-25T12:27:40;1.60;;;1.47;;
2001;SDS011;1003;48.002;7.788;2023-04-25T12:30:09;2.83;;;1.90;;
2001;SDS011;1003;48.002;7.788;2023-04-25T12:32:37;2.00;;;1.90;;
2001;SDS011;1003;48.002;7.788;2023-04-25T12:35:05;2.10;;;1.70;;
2001;SDS011;1003;48.002;7.788;2023-04-25T12:37:32;1.73;;;1.60;;
2001;SDS011;1003;48.002;7.788;2023-04-25T12:39:59;1.93;;;1.83;;
2001;SDS011;1003;48.002;7.788;2023-04-25T12:42:26;2.20;;;2.00;;
2001;SDS011;1003;48.002;7.788;2023-04-25T12:44:55;2.23;;;1.90;;
2001;SDS011;1003;48.002;7.788;2023-04-25T12:47:25;3.10;;;1.83;;
2001;SDS011;1003;48.002;7.788;2023-04-25T12:49:53;2.10;;;1.87;;
2001;SDS011;1003;48.002;7.788;2023-04-25T12:52:20;2.23;;;2.03;;
2001;SDS011;1003;48.002;7.788;2023-04-25T12:54:47;2.50;;;1.70;;
2001;SDS011;1003;48.002;7.788;2023-04-25T12:57:14;1.70;;;1.60;;
2001;SDS011;1003;48.002;7.788;2023-04-25T12:59:41;1.97;;;1.77;;
2001;SDS011;1003;48.002;7.788;2023-04-25T13:02:09;3.10;;;1.70;;
2001;SDS011;1003;48.002;7.788;2023-04-25T13:04:36;1.80;;;1.70;;
2001;SDS011;1003;48.002;7.788;2023-04-25T13:07:03;2.40;;;1.60;;
2001;SDS011;1003;48.002;7.788;2023-04-25T13:09:31;1.73;;;1.50;;
2001;SDS011;1003;48.002;7.788;2023-04-25T13:11:58;2.03;;;1.80;;
2001;SDS011;1003;48.002;7.788;2023-04-25T13:14:25;1.70;;;1.60;;
2001;SDS011;1003;48.002;7.788;2023-04-25T13:16:52;1.60;;;1.50;;
2001;SDS011;1003;48.002;7.788;2023-04-25T13:19:21;1.87;;;1.60;;
2001;SDS011;1003;48.002;7.788;2023-04-25T13:21:48;1.87;;;1.63;;
2001;SDS011;1003;48.002;7.788;2023-04-25T13:24:15;2.20;;;2.00;;
2001;SDS011;1003;48.002;7.788;2023-04-25T13:26:43;2.37;;;1.30;;
2001;SDS011;1003;48.002;7.788;2023-04-25T13:29:10;1.07;;;1.07;;
2001;SDS011;1003;48.002;7.788;2023-04-25T13:31:37;1.97;;;1.40;;
2001;SDS011;1003;48.002;7.788;2023-04-25T13:34:05;1.40;;;1.30;;
2001;SDS011;1003;48.002;7.788;2023-04-25T13:36:33;1.07;;;1.07;;
2001;SDS011;1003;48.002;7.788;2023-04-25T13:39:00;1.30;;;1.20;;
2001;SDS011;1003;48.002;7.788;2023-04-25T13:41:29;1.17;;;1.07;;
2001;SDS011;1003;48.002;7.788;2023-04-25T13:43:56;1.33;;;1.23;;
2001;SDS011;1003;48.002;7.788;2023-04-25T13:46:23;1.33;;;1.17;;
2001;SDS011;1003;48.002;7.788;2023-04-25T13:48:50;1.87;;;1.30;;
2001;SDS011;1003;48.002;7.788;2023-04-25T13:51:17;3.00;;;1.20;;
2001;SDS011;1003;48.002;7.788;2023-04-25T13:53:47;1.47;;;1.33;;
2001;SDS011;1003;48.002;7.788;2023-04-25T13:56:14;2.40;;;1.20;;
2001;SDS011;1003;48.002;7.788;2023-04-25T13:58:41;4.07;;;1.20;;
2001;SDS011;1003;48.002;7.788;2023-04-25T14:01:08;1.27;;;1.17;;
2001;SDS011;1003;48.002;7.788;2023-04-25T14:03:35;1.20;;;1.10;;
2001;SDS011;1003;48.002;7.788;2023-04-25T14:06:02;1.00;;;1.00;;
2001;SDS011;1003;48.002;7.788;2023-04-25T14:08:30;1.20;;;1.10;;
2001;SDS011;1003;48.002;7.788;2023-04-25T14:10:58;1.90;;;1.00;;
2001;SDS011;1003;48.002;7.788;2023-04-25T14:13:25;1.03;;;0.90;;
2001;SDS011;1003;48.002;7.788;2023-04-25T14:15:52;1.10;;;1.00;;
2001;SDS011;1003;48.002;7.788;2023-04-25T14:18:19;0.97;;;0.90;;
2001;SDS011;1003;48.002;7.788;2023-04-25T14:20:46;1.10;;;1.00;;
2001;SDS011;1003;48.002;7.788;2023-04-25T14:23:14;0.97;;;0.90;;
2001;SDS011;1003;48.002;7.788;2023-04-25T14:25:42;1.03;;;0.90;;
2001;SDS011;1003;48.002;7.788;2023-04-25T14:28:11;0.90;;;0.90;;
2001;SDS011;1003;48.002;7.788;2023-04-25T14:30:38;1.37;;;1.03;;
2001;SDS011;1003;48.002;7.788;2023-04-25T14:33:05;1.70;;;0.90;;
2001;SDS011;1003;48.002;7.788;2023-04-25T14:35:32;1.13;;;1.03;;
2001;SDS011;1003;48.002;7.788;2023-04-25T14:37:59;1.20;;;1.10;;
2001;SDS011;1003;48.002;7.788;2023-04-25T14:40:26;1.70;;;1.20;;
2001;SDS011;1003;48.002;7.788;2023-04-25T14:42:53;1.03;;;1.00;;
2001;SDS011;1003;48.002;7.788;2023-04-25T14:45:22;1.50;;;0.93;;
2001;SDS011;1003;48.002;7.788;2023-04-25T14:47:49;1.27;;;1.17;;
2001;SDS011;1003;48.002;7.788;2023-04-25T14:50:16;1.67;;;1.57;;
2001;SDS011;1003;48.002;7.788;2023-04-25T14:52:44;1.00;;;1.00;;
2001;SDS011;1003;48.002;7.788;2023-04-25T14:55:11;2.57;;;1.90;;
2001;SDS011;1003;48.002;7.788;2023-04-25T14:57:39;2.57;;;1.93;;
2001;SDS011;1003;48.002;7.788;2023-04-25T15:00:06;2.00;;;1.80;;
2001;SDS011;1003;48.002;7.788;2023-04-25T15:02:40;4.43;;;2.40;;
2001;SDS011;1003;48.002;7.788;2023-04-25T15:05:07;2.17;;;1.97;;
2001;SDS011;1003;48.002;7.788;2023-04-25T15:07:35;2.43;;;1.93;;
2001;SDS011;1003;48.002;7.788;2023-04-25T15:10:02;4.07;;;2.30;;
2001;SDS011;1003;48.002;7.788;2023-04-25T15:12:30;3.23;;;2.00;;
2001;SDS011;1003;48.002;7.788;2023-04-25T15:14:57;3.27;;;1.90;;
2001;SDS011;1003;48.002;7.788;2023-04-25T15:17:24;2.00;;;1.80;;
2001;SDS011;1003;48.002;7.788;2023-04-25T15:19:57;2.37;;;1.80;;
2001;SDS011;1003;48.002;7.788;2023-04-25T15:22:24;5.50;;;3.47;;